Time;durP1;ratioP1;P1;durP2;ratioP2;P2;SDS_P1;SDS_P2;PMS_P1;PMS_P2;Temp;Humidity;BMP_temperature;BMP_pressure;BME280_temperature;BME280_humidity;BME280_pressure;Samples;Min_cycle;Max_cycle;Signal;HPM_P1;HPM_P2
2022/09/29 00:00:17;;;;;;;1.80;1.70;;;17.20;53.90;;;;;;5073463;28;20191;-72
2022/09/29 00:02:43;;;;;;;1.95;1.80;;;17.20;53.90;;;;;;5074151;28;20205;-72
2022/09/29 00:05:10;;;;;;;3.30;1.90;;;17.20;53.90;;;;;;5076407;28;20203;-72
2022/09/29 00:07:38;;;;;;;1.60;1.50;;;17.10;53.90;;;;;;5076374;28;20214;-72
2022/09/29 00:10:06;;;;;;;2.63;2.25;;;17.20;54.00;;;;;;5076554;28;20707;-72
2022/09/29 00:12:33;;;;;;;1.98;1.88;;;17.20;54.00;;;;;;5076653;28;20240;-72
2022/09/29 00:15:00;;;;;;;1.90;1.80;;;17.20;54.00;;;;;;5076261;28;20198;-72
2022/09/29 00:17:27;;;;;;;2.75;1.80;;;17.10;53.90;;;;;;5077565;28;20281;-72
2022/09/29 00:19:54;;;;;;;2.58;2.10;;;17.20;54.20;;;;;;5076228;28;20202;-72
2022/09/29 00:22:21;;;;;;;1.90;1.70;;;17.20;54.00;;;;;;5077774;28;20187;-72
2022/09/29 00:24:50;;;;;;;2.42;1.80;;;17.10;54.00;;;;;;5076233;28;20194;-72
2022/09/29 00:27:17;;;;;;;2.80;1.90;;;17.10;54.10;;;;;;5059217;28;20226;-72
2022/09/29 00:29:44;;;;;;;2.10;1.90;;;17.10;54.00;;;;;;5077123;28;20244;-72
2022/09/29 00:32:12;;;;;;;2.08;1.95;;;17.10;54.10;;;;;;5076212;28;20665;-72
2022/09/29 00:34:38;;;;;;;2.70;1.85;;;17.10;54.00;;;;;;5076562;28;20191;-72
2022/09/29 00:37:06;;;;;;;2.05;1.52;;;17.10;54.10;;;;;;5075886;28;20218;-72
2022/09/29 00:39:33;;;;;;;2.25;1.88;;;17.10;54.10;;;;;;5075854;28;20202;-72
2022/09/29 00:42:01;;;;;;;3.47;1.95;;;17.10;54.10;;;;;;5075950;28;20672;-72
2022/09/29 00:45:05;;;;;;;1.85;1.75;;;17.10;54.10;;;;;;5076264;28;20278;-72
2022/09/29 00:47:32;;;;;;;1.67;1.58;;;17.10;54.20;;;;;;5076870;28;20210;-72
2022/09/29 00:50:01;;;;;;;2.30;1.90;;;17.10;54.20;;;;;;5075938;28;20199;-72
2022/09/29 00:52:30;;;;;;;2.00;1.83;;;17.10;54.10;;;;;;5075412;28;20211;-72
2022/09/29 00:54:58;;;;;;;1.80;1.70;;;17.10;54.20;;;;;;5077311;28;20279;-72
2022/09/29 00:57:29;;;;;;;1.80;1.70;;;17.10;54.10;;;;;;5075502;28;20260;-72
2022/09/29 00:59:58;;;;;;;2.53;1.92;;;17.10;54.30;;;;;;5075370;28;20533;-72
2022/09/29 01:02:25;;;;;;;1.73;1.63;;;17.10;54.30;;;;;;5075230;28;20198;-72
2022/09/29 01:04:53;;;;;;;1.80;1.70;;;17.10;54.20;;;;;;5075378;28;20195;-72
2022/09/29 01:07:20;;;;;;;2.53;2.00;;;17.10;54.20;;;;;;5075028;28;20222;-72
2022/09/29 01:09:47;;;;;;;2.42;1.85;;;17.10;54.10;;;;;;5075238;28;20191;-72
2022/09/29 01:12:14;;;;;;;1.90;1.80;;;17.10;54.10;;;;;;5075263;28;20201;-72
2022/09/29 01:14:42;;;;;;;1.77;1.67;;;17.10;54.10;;;;;;5075261;28;20203;-72
2022/09/29 01:17:09;;;;;;;2.08;1.98;;;17.10;54.10;;;;;;5075373;28;20210;-72
2022/09/29 01:19:46;;;;;;;1.92;1.75;;;17.20;54.10;;;;;;5074864;28;20252;-72
2022/09/29 01:22:19;;;;;;;2.10;1.90;;;17.10;54.10;;;;;;5076558;28;20213;-72
2022/09/29 01:24:58;;;;;;;2.03;1.60;;;17.10;54.10;;;;;;5058382;28;20205;-72
2022/09/29 01:27:43;;;;;;;1.80;1.70;;;17.10;54.10;;;;;;5074849;28;20693;-72
2022/09/29 01:30:18;;;;;;;2.80;1.90;;;17.10;54.10;;;;;;5074848;28;20198;-72
2022/09/29 01:33:15;;;;;;;1.73;1.60;;;17.10;54.10;;;;;;5075049;28;20204;-72
2022/09/29 01:35:49;;;;;;;2.30;1.65;;;17.10;54.20;;;;;;5074893;28;20238;-72
2022/09/29 01:38:25;;;;;;;2.95;1.77;;;17.10;54.20;;;;;;5074834;28;20195;-73
2022/09/29 01:40:54;;;;;;;3.25;1.80;;;17.10;54.10;;;;;;5075686;28;20576;-73
2022/09/29 01:43:24;;;;;;;1.80;1.70;;;17.10;54.10;;;;;;5075135;28;20596;-73
2022/09/29 01:45:52;;;;;;;1.92;1.73;;;17.10;54.00;;;;;;5074660;28;20214;-73
2022/09/29 01:48:22;;;;;;;2.03;1.88;;;17.10;54.10;;;;;;5075812;28;20273;-73
2022/09/29 01:50:51;;;;;;;2.08;1.88;;;17.10;54.00;;;;;;5076164;28;20185;-73
2022/09/29 01:53:19;;;;;;;4.13;1.63;;;17.10;54.20;;;;;;5074598;28;20209;-73
2022/09/29 01:55:48;;;;;;;2.28;1.67;;;17.10;54.20;;;;;;5076128;28;20207;-73
2022/09/29 01:58:16;;;;;;;2.45;1.90;;;17.10;54.10;;;;;;5075720;28;20277;-73
2022/09/29 02:00:45;;;;;;;1.77;1.67;;;17.10;54.20;;;;;;5074922;28;20199;-73
2022/09/29 02:03:15;;;;;;;1.90;1.80;;;17.10;54.20;;;;;;5074517;28;20199;-73
2022/09/29 02:05:44;;;;;;;2.00;1.80;;;17.10;54.20;;;;;;5074174;28;20301;-73
2022/09/29 02:08:13;;;;;;;1.65;1.50;;;17.10;54.10;;;;;;5074219;28;20683;-73
2022/09/29 02:10:43;;;;;;;4.22;2.00;;;17.10;54.10;;;;;;5075426;28;20206;-73
2022/09/29 02:13:10;;;;;;;1.75;1.65;;;17.10;54.20;;;;;;5074773;28;20210;-73
2022/09/29 02:15:38;;;;;;;2.20;2.00;;;17.10;54.20;;;;;;5074180;28;20302;-73
2022/09/29 02:18:09;;;;;;;1.80;1.70;;;17.10;54.20;;;;;;5074475;28;20325;-73
2022/09/29 02:20:37;;;;;;;2.47;1.98;;;17.10;54.20;;;;;;5074816;28;20191;-73
2022/09/29 02:23:05;;;;;;;1.70;1.60;;;17.10;54.20;;;;;;5074370;28;20295;-73
2022/09/29 02:25:32;;;;;;;2.00;1.70;;;17.10;54.20;;;;;;5073396;28;20222;-73
2022/09/29 02:28:00;;;;;;;2.03;1.92;;;17.10;54.30;;;;;;5074982;28;20230;-72
2022/09/29 02:30:27;;;;;;;1.90;1.80;;;17.10;54.20;;;;;;5073557;28;20198;-72
2022/09/29 02:32:54;;;;;;;1.83;1.73;;;17.10;54.20;;;;;;5074835;28;20195;-72
2022/09/29 02:35:21;;;;;;;2.30;2.10;;;17.10;54.20;;;;;;5073496;28;20194;-72
2022/09/29 02:37:54;;;;;;;2.03;1.90;;;17.10;54.20;;;;;;5073503;28;20195;-72
2022/09/29 02:40:35;;;;;;;2.05;1.90;;;17.10;54.30;;;;;;5073466;28;20290;-72
2022/09/29 02:43:17;;;;;;;2.00;1.80;;;17.10;54.30;;;;;;5073453;28;20190;-73
2022/09/29 02:45:51;;;;;;;1.70;1.60;;;17.10;54.30;;;;;;5074687;28;20218;-72
2022/09/29 02:48:30;;;;;;;2.13;1.90;;;17.10;54.30;;;;;;5073453;28;20648;-72
2022/09/29 02:51:03;;;;;;;2.03;1.75;;;17.10;54.30;;;;;;5057569;28;20194;-72
2022/09/29 02:53:37;;;;;;;2.55;1.95;;;17.10;54.30;;;;;;5073469;28;20198;-72
2022/09/29 02:56:09;;;;;;;1.85;1.70;;;17.10;54.40;;;;;;5073222;28;20638;-73
2022/09/29 02:58:38;;;;;;;1.85;1.60;;;17.10;54.40;;;;;;5073182;28;20248;-73
2022/09/29 03:01:06;;;;;;;2.00;1.80;;;17.10;54.40;;;;;;5074772;28;20301;-73
2022/09/29 03:03:33;;;;;;;2.42;2.10;;;17.10;54.40;;;;;;5080043;28;20699;-73
2022/09/29 03:06:00;;;;;;;3.05;2.00;;;17.10;54.30;;;;;;5074040;28;20226;-73
2022/09/29 03:08:27;;;;;;;2.20;2.00;;;17.10;54.30;;;;;;5074338;28;20282;-72
2022/09/29 03:10:54;;;;;;;2.00;1.85;;;17.10;54.30;;;;;;5073150;28;20223;-72
2022/09/29 03:13:22;;;;;;;2.28;2.03;;;17.10;54.20;;;;;;5072996;28;20206;-72
2022/09/29 03:15:49;;;;;;;1.90;1.80;;;17.10;54.30;;;;;;5056346;28;20306;-72
2022/09/29 03:18:16;;;;;;;1.88;1.70;;;17.10;54.30;;;;;;5072971;28;20194;-72
2022/09/29 03:20:45;;;;;;;1.95;1.83;;;17.10;54.40;;;;;;5073989;28;20194;-72
2022/09/29 03:23:12;;;;;;;1.88;1.60;;;17.10;54.40;;;;;;5072660;28;20195;-72
2022/09/29 03:25:39;;;;;;;2.65;1.80;;;17.10;54.40;;;;;;5039851;28;20214;-72
2022/09/29 03:28:06;;;;;;;1.73;1.63;;;17.10;54.50;;;;;;5073049;28;20222;-72
2022/09/29 03:30:35;;;;;;;1.80;1.70;;;17.10;55.20;;;;;;5072958;28;20203;-72
2022/09/29 03:33:01;;;;;;;2.90;2.03;;;17.10;54.40;;;;;;5073733;28;20665;-72
2022/09/29 03:35:28;;;;;;;1.80;1.70;;;17.20;54.20;;;;;;5072466;28;20609;-72
2022/09/29 03:37:57;;;;;;;1.63;1.52;;;17.20;54.00;;;;;;5071901;28;20608;-72
2022/09/29 03:40:24;;;;;;;1.88;1.75;;;17.20;54.10;;;;;;5073465;28;20229;-72
2022/09/29 03:42:51;;;;;;;2.03;1.88;;;17.30;54.60;;;;;;5073725;28;20248;-72
2022/09/29 03:45:18;;;;;;;2.15;1.60;;;17.30;53.90;;;;;;5072460;28;20190;-72
2022/09/29 03:47:46;;;;;;;1.75;1.65;;;17.30;54.00;;;;;;5072307;28;20230;-73
2022/09/29 03:50:13;;;;;;;1.70;1.60;;;17.30;53.90;;;;;;5072437;28;20209;-73
2022/09/29 03:52:40;;;;;;;1.92;1.80;;;17.30;53.90;;;;;;5072360;28;20653;-73
2022/09/29 03:55:08;;;;;;;2.08;1.88;;;17.30;53.90;;;;;;5072188;28;20221;-72
2022/09/29 03:57:35;;;;;;;1.75;1.63;;;17.30;53.80;;;;;;5072251;28;20215;-72
2022/09/29 04:00:02;;;;;;;1.90;1.80;;;17.30;53.60;;;;;;5072298;28;20218;-72
2022/09/29 04:02:35;;;;;;;1.75;1.60;;;17.30;53.60;;;;;;5073580;28;20186;-72
2022/09/29 04:05:04;;;;;;;2.20;2.00;;;17.30;53.50;;;;;;5073745;28;20194;-73
2022/09/29 04:07:31;;;;;;;1.90;1.80;;;17.30;53.50;;;;;;5072251;28;20218;-73
2022/09/29 04:09:58;;;;;;;1.90;1.70;;;17.30;53.40;;;;;;5072553;28;20682;-72
2022/09/29 04:12:25;;;;;;;1.88;1.77;;;17.30;53.30;;;;;;5072290;28;20194;-72
2022/09/29 04:14:52;;;;;;;1.95;1.85;;;17.30;53.40;;;;;;5072455;28;20209;-73
2022/09/29 04:17:19;;;;;;;1.83;1.70;;;17.30;53.60;;;;;;5072191;28;20211;-73
2022/09/29 04:19:46;;;;;;;1.83;1.70;;;17.20;53.50;;;;;;5072266;28;20203;-72
2022/09/29 04:22:17;;;;;;;2.28;2.03;;;17.20;53.80;;;;;;5072023;28;20199;-72
2022/09/29 04:24:44;;;;;;;2.08;1.88;;;17.10;53.60;;;;;;5072093;28;20695;-72
2022/09/29 04:27:11;;;;;;;2.03;1.80;;;17.20;53.70;;;;;;5071947;28;20219;-72
2022/09/29 04:29:38;;;;;;;2.83;1.92;;;17.10;53.70;;;;;;5071972;28;20221;-72
2022/09/29 04:32:05;;;;;;;2.00;1.80;;;17.10;53.80;;;;;;5071985;28;20226;-72
2022/09/29 04:34:32;;;;;;;2.00;1.85;;;17.10;53.70;;;;;;5073238;28;20211;-72
2022/09/29 04:36:59;;;;;;;2.03;1.83;;;17.00;53.80;;;;;;5072036;28;20215;-72
2022/09/29 04:39:28;;;;;;;1.75;1.65;;;17.00;53.70;;;;;;5071852;28;20199;-72
2022/09/29 04:41:55;;;;;;;2.22;2.03;;;17.10;53.70;;;;;;5073143;28;20186;-72
2022/09/29 04:44:23;;;;;;;2.10;1.90;;;17.00;53.60;;;;;;5072095;28;20253;-72
2022/09/29 04:46:50;;;;;;;1.90;1.80;;;17.00;53.60;;;;;;5072116;28;20226;-72
2022/09/29 04:49:17;;;;;;;2.30;2.08;;;17.00;53.70;;;;;;5075235;28;20235;-72
2022/09/29 04:51:44;;;;;;;1.80;1.70;;;17.00;53.70;;;;;;5076443;28;20203;-72
2022/09/29 04:54:11;;;;;;;2.08;1.88;;;17.00;53.70;;;;;;5075782;28;20205;-72
2022/09/29 04:56:39;;;;;;;3.25;1.90;;;17.00;53.70;;;;;;5076029;28;20223;-72
2022/09/29 04:59:07;;;;;;;2.08;1.83;;;17.00;53.80;;;;;;5076460;28;20205;-72
2022/09/29 05:01:34;;;;;;;2.08;1.98;;;16.90;53.70;;;;;;5075716;28;20206;-72
2022/09/29 05:04:01;;;;;;;2.15;1.95;;;17.00;53.80;;;;;;5075292;28;20603;-72
2022/09/29 05:06:28;;;;;;;2.00;1.80;;;17.00;53.80;;;;;;5075201;28;20275;-72
2022/09/29 05:08:55;;;;;;;2.00;1.45;;;16.90;53.80;;;;;;5075546;28;20215;-72
2022/09/29 05:11:23;;;;;;;2.03;1.90;;;16.90;53.80;;;;;;5075480;28;20214;-72
2022/09/29 05:13:51;;;;;;;2.13;1.92;;;16.90;53.60;;;;;;5075488;28;20199;-72
2022/09/29 05:16:18;;;;;;;2.08;1.90;;;16.90;53.60;;;;;;5075716;28;20218;-72
2022/09/29 05:18:44;;;;;;;2.38;1.95;;;16.90;53.60;;;;;;5075282;28;20186;-72
2022/09/29 05:21:11;;;;;;;2.08;1.88;;;16.90;53.50;;;;;;5075415;28;20195;-73
2022/09/29 05:23:38;;;;;;;1.83;1.73;;;17.00;53.40;;;;;;5075294;28;20203;-73
2022/09/29 05:26:07;;;;;;;2.72;1.80;;;16.90;53.40;;;;;;5076255;28;20697;-73
2022/09/29 05:28:34;;;;;;;2.45;1.80;;;16.90;53.40;;;;;;5075079;28;20215;-73
2022/09/29 05:31:03;;;;;;;1.90;1.70;;;16.90;53.50;;;;;;5075339;28;20205;-73
2022/09/29 05:33:30;;;;;;;1.92;1.83;;;16.90;53.40;;;;;;5074794;28;20206;-73
2022/09/29 05:35:57;;;;;;;2.10;1.70;;;16.90;53.40;;;;;;5074748;28;20222;-73
2022/09/29 05:38:24;;;;;;;2.75;1.92;;;17.00;53.50;;;;;;5074620;28;20190;-73
2022/09/29 05:40:52;;;;;;;1.92;1.83;;;16.90;53.40;;;;;;5074727;28;20213;-72
2022/09/29 05:43:18;;;;;;;1.88;1.77;;;16.90;53.50;;;;;;5074912;28;20650;-72
2022/09/29 05:45:45;;;;;;;2.10;1.90;;;16.90;53.60;;;;;;5074551;28;20218;-72
2022/09/29 05:48:14;;;;;;;3.00;1.92;;;16.90;53.60;;;;;;5074479;28;20742;-72
2022/09/29 05:50:42;;;;;;;1.83;1.73;;;16.90;53.40;;;;;;5075370;28;20248;-72
2022/09/29 05:53:09;;;;;;;2.42;2.17;;;16.90;53.40;;;;;;5058081;28;20230;-72
2022/09/29 05:55:38;;;;;;;2.10;1.98;;;16.90;53.40;;;;;;5074399;28;20636;-72
2022/09/29 05:58:05;;;;;;;2.35;2.00;;;16.90;53.40;;;;;;5075556;28;20179;-72
2022/09/29 06:00:33;;;;;;;2.17;1.98;;;17.00;53.40;;;;;;5056688;28;20222;-72
2022/09/29 06:03:00;;;;;;;2.63;2.42;;;16.90;53.40;;;;;;5075452;28;20186;-72
2022/09/29 06:05:28;;;;;;;2.00;1.90;;;16.90;53.40;;;;;;5075280;28;20252;-72
2022/09/29 06:07:55;;;;;;;1.98;1.80;;;16.90;53.50;;;;;;5074081;28;20585;-72
2022/09/29 06:10:22;;;;;;;2.28;2.00;;;17.00;53.70;;;;;;5074374;28;20285;-72
2022/09/29 06:12:49;;;;;;;2.25;2.05;;;17.00;53.60;;;;;;5074335;28;20600;-73
2022/09/29 06:15:16;;;;;;;2.67;1.90;;;17.00;53.70;;;;;;5074784;28;20198;-73
2022/09/29 06:17:44;;;;;;;1.90;1.80;;;17.00;53.60;;;;;;5074359;28;20217;-73
2022/09/29 06:20:11;;;;;;;1.92;1.80;;;17.00;53.70;;;;;;5074035;28;20201;-72
2022/09/29 06:22:39;;;;;;;1.90;1.80;;;17.00;53.90;;;;;;5073963;28;20238;-72
2022/09/29 06:25:07;;;;;;;4.00;1.88;;;17.10;53.90;;;;;;5074044;28;20203;-72
2022/09/29 06:27:35;;;;;;;2.22;2.03;;;17.10;53.90;;;;;;5073981;28;20219;-72
2022/09/29 06:30:02;;;;;;;2.05;1.60;;;17.10;53.90;;;;;;5074889;28;20203;-72
2022/09/29 06:32:29;;;;;;;2.00;1.90;;;17.10;53.90;;;;;;5074897;28;20233;-72
2022/09/29 06:37:42;;;;;;;2.20;2.00;;;17.10;53.90;;;;;;5073557;28;20201;-72
2022/09/29 06:40:10;;;;;;;2.00;1.90;;;17.10;54.60;;;;;;5073483;28;20199;-72
2022/09/29 06:42:37;;;;;;;3.63;2.15;;;17.20;54.10;;;;;;5073856;28;20198;-72
2022/09/29 06:45:05;;;;;;;2.17;1.98;;;17.10;53.90;;;;;;5075081;28;20202;-72
2022/09/29 06:47:32;;;;;;;2.00;1.80;;;17.20;54.00;;;;;;5073063;28;20275;-72
2022/09/29 06:50:01;;;;;;;1.80;1.70;;;17.20;54.10;;;;;;5073279;28;20264;-72
2022/09/29 06:52:27;;;;;;;2.30;2.10;;;17.20;54.10;;;;;;5073280;28;20195;-72
2022/09/29 06:54:56;;;;;;;2.10;1.90;;;17.20;53.90;;;;;;5073289;28;20566;-72
2022/09/29 06:57:23;;;;;;;2.17;2.00;;;17.20;53.80;;;;;;5073013;28;20272;-72
2022/09/29 06:59:50;;;;;;;2.28;2.08;;;17.30;54.00;;;;;;5074254;28;20195;-72
2022/09/29 07:02:17;;;;;;;2.72;2.20;;;17.30;53.80;;;;;;5073689;28;20203;-72
2022/09/29 07:04:46;;;;;;;2.40;2.20;;;17.30;53.80;;;;;;5072999;28;20194;-72
2022/09/29 07:07:13;;;;;;;2.25;2.00;;;17.30;53.80;;;;;;5073333;28;20221;-72
2022/09/29 07:09:41;;;;;;;2.95;2.13;;;17.30;53.80;;;;;;5073278;28;20199;-72
2022/09/29 07:12:10;;;;;;;2.40;2.20;;;17.40;53.80;;;;;;5056652;28;20278;-72
2022/09/29 07:14:37;;;;;;;2.55;2.30;;;17.40;53.80;;;;;;5072861;28;20285;-72
2022/09/29 07:17:05;;;;;;;2.53;2.33;;;17.40;53.70;;;;;;5072827;28;20206;-72
2022/09/29 07:19:32;;;;;;;2.60;2.13;;;17.40;53.70;;;;;;5073922;28;20187;-72
2022/09/29 07:21:59;;;;;;;2.30;2.10;;;17.50;53.80;;;;;;5072763;28;20199;-72
2022/09/29 07:24:26;;;;;;;2.75;2.40;;;17.50;53.80;;;;;;5072734;28;20249;-72
2022/09/29 07:26:53;;;;;;;2.17;2.08;;;17.50;53.80;;;;;;5073347;28;20249;-72
2022/09/29 07:29:22;;;;;;;2.65;2.22;;;17.50;53.70;;;;;;5072702;28;20677;-72
2022/09/29 07:31:51;;;;;;;2.47;2.22;;;17.50;53.70;;;;;;5074491;28;20198;-72
2022/09/29 07:34:18;;;;;;;2.10;1.90;;;17.50;53.60;;;;;;5072645;28;20244;-72
2022/09/29 07:36:45;;;;;;;2.30;2.10;;;17.60;53.60;;;;;;5073418;28;20221;-72
2022/09/29 07:39:12;;;;;;;2.05;1.77;;;17.60;53.60;;;;;;5072782;28;20191;-72
2022/09/29 07:41:39;;;;;;;2.20;2.00;;;17.60;53.60;;;;;;5073780;28;20194;-73
2022/09/29 07:44:06;;;;;;;2.65;2.30;;;17.60;53.50;;;;;;5073719;28;20676;-72
2022/09/29 07:46:34;;;;;;;2.53;2.33;;;17.60;53.50;;;;;;5073538;28;20249;-72
2022/09/29 07:49:01;;;;;;;2.53;2.33;;;17.70;53.50;;;;;;5073738;28;20692;-72
2022/09/29 07:51:28;;;;;;;2.72;2.50;;;17.70;53.40;;;;;;5072824;28;20198;-73
2022/09/29 07:53:55;;;;;;;2.63;2.20;;;17.70;53.40;;;;;;5072473;28;20198;-73
2022/09/29 07:56:22;;;;;;;2.40;2.10;;;17.70;53.50;;;;;;5073172;28;20218;-72
2022/09/29 07:58:50;;;;;;;2.30;2.10;;;17.70;53.50;;;;;;5072376;28;20198;-72
2022/09/29 08:01:17;;;;;;;2.60;2.25;;;17.80;53.50;;;;;;5074047;28;20198;-72
2022/09/29 08:03:49;;;;;;;2.30;2.10;;;17.80;53.40;;;;;;5073088;28;20588;-72
2022/09/29 08:06:16;;;;;;;2.67;2.08;;;17.80;53.40;;;;;;5072310;28;20301;-72
2022/09/29 08:08:43;;;;;;;2.60;2.20;;;17.90;53.40;;;;;;5072127;28;20214;-72
2022/09/29 08:11:11;;;;;;;1.92;1.77;;;17.90;53.30;;;;;;5072246;28;20195;-72
2022/09/29 08:13:38;;;;;;;2.03;1.92;;;17.90;53.30;;;;;;5072171;28;20675;-72
2022/09/29 08:16:06;;;;;;;2.47;2.13;;;18.00;53.20;;;;;;5072339;28;20268;-72
2022/09/29 08:18:33;;;;;;;2.10;1.90;;;18.00;53.00;;;;;;5072163;28;20199;-72
2022/09/29 08:21:02;;;;;;;2.22;2.03;;;18.00;53.00;;;;;;5072175;28;20205;-72
2022/09/29 08:23:30;;;;;;;2.00;1.90;;;18.00;53.60;;;;;;5073483;28;20205;-72
2022/09/29 08:26:01;;;;;;;2.10;1.85;;;18.10;53.10;;;;;;5076230;28;20218;-72
2022/09/29 08:28:28;;;;;;;2.90;2.03;;;18.10;53.10;;;;;;5075862;28;20579;-72
2022/09/29 08:30:55;;;;;;;2.08;1.83;;;18.10;53.10;;;;;;5076201;28;20241;-72
2022/09/29 08:33:22;;;;;;;3.08;2.20;;;18.10;52.80;;;;;;5076112;28;20194;-73
2022/09/29 08:35:55;;;;;;;2.63;2.00;;;18.10;52.80;;;;;;5075982;28;20218;-73
2022/09/29 08:38:24;;;;;;;2.17;1.77;;;18.30;52.90;;;;;;5075886;28;20269;-73
2022/09/29 08:40:51;;;;;;;4.07;2.13;;;18.30;52.60;;;;;;5076996;28;20191;-73
2022/09/29 08:43:19;;;;;;;2.38;2.10;;;18.40;52.60;;;;;;5076578;28;20205;-73
2022/09/29 08:45:47;;;;;;;2.38;2.17;;;18.40;52.30;;;;;;5075644;28;20268;-72
2022/09/29 08:48:15;;;;;;;2.90;2.30;;;18.50;52.10;;;;;;5076767;28;20715;-72
2022/09/29 08:50:46;;;;;;;2.58;2.22;;;18.60;51.90;;;;;;5077366;28;20186;-72
2022/09/29 08:53:15;;;;;;;2.30;1.90;;;18.70;52.00;;;;;;5075550;28;20244;-72
2022/09/29 08:55:47;;;;;;;2.28;2.00;;;18.80;51.70;;;;;;5075719;28;20292;-72
2022/09/29 08:58:15;;;;;;;1.95;1.85;;;18.90;51.60;;;;;;5089875;28;20583;-72
2022/09/29 09:00:44;;;;;;;2.70;2.10;;;19.00;51.40;;;;;;5078819;28;20545;-73
2022/09/29 09:03:37;;;;;;;2.63;2.42;;;19.10;51.20;;;;;;5077635;28;20199;-72
2022/09/29 09:06:10;;;;;;;2.20;2.00;;;19.20;51.00;;;;;;5075593;28;20231;-72
2022/09/29 09:09:08;;;;;;;1.80;1.63;;;19.20;50.80;;;;;;5075562;28;20744;-72
2022/09/29 09:11:43;;;;;;;3.10;1.67;;;19.30;50.70;;;;;;5063536;28;20252;-72
2022/09/29 09:14:18;;;;;;;2.15;1.90;;;19.30;50.60;;;;;;5075526;28;20232;-72
2022/09/29 09:16:50;;;;;;;2.33;1.80;;;19.40;50.50;;;;;;5075285;28;20222;-72
2022/09/29 09:19:38;;;;;;;2.42;1.80;;;19.40;50.50;;;;;;5075288;28;20194;-72
2022/09/29 09:22:21;;;;;;;2.33;1.77;;;19.40;50.40;;;;;;5075107;28;20206;-72
2022/09/29 09:24:48;;;;;;;2.47;1.90;;;19.40;50.40;;;;;;5075013;28;20248;-72
2022/09/29 09:27:19;;;;;;;1.90;1.80;;;19.40;50.30;;;;;;5074982;28;20272;-72
2022/09/29 09:29:46;;;;;;;2.38;1.75;;;19.40;50.30;;;;;;5075970;28;20214;-72
2022/09/29 09:32:14;;;;;;;2.35;2.08;;;19.40;50.30;;;;;;5075102;28;20195;-72
2022/09/29 09:34:44;;;;;;;1.85;1.75;;;19.40;50.40;;;;;;5073636;28;20653;-73
2022/09/29 09:37:12;;;;;;;2.53;1.92;;;19.40;50.30;;;;;;5074775;28;20268;-73
2022/09/29 09:39:42;;;;;;;2.10;1.90;;;19.40;50.20;;;;;;5074742;28;20289;-73
2022/09/29 09:42:13;;;;;;;1.70;1.60;;;19.40;50.30;;;;;;5074812;28;20195;-73
2022/09/29 09:44:44;;;;;;;2.00;1.80;;;19.40;50.30;;;;;;5074753;28;20195;-73
2022/09/29 09:47:19;;;;;;;2.08;1.88;;;19.40;50.40;;;;;;5074605;28;20685;-73
2022/09/29 09:49:49;;;;;;;3.08;1.70;;;19.40;50.50;;;;;;5075942;28;20201;-73
2022/09/29 09:52:19;;;;;;;2.65;1.70;;;19.40;50.60;;;;;;5074997;28;20248;-73
2022/09/29 09:54:47;;;;;;;2.13;1.70;;;19.40;50.50;;;;;;5074409;28;20654;-73
2022/09/29 09:57:45;;;;;;;2.10;1.70;;;19.40;50.40;;;;;;5076029;28;20214;-73
2022/09/29 10:00:14;;;;;;;2.10;1.90;;;19.50;50.20;;;;;;5069077;28;20199;-73
2022/09/29 10:02:44;;;;;;;1.85;1.70;;;19.50;50.20;;;;;;5074414;28;20615;-73
2022/09/29 10:05:12;;;;;;;1.80;1.70;;;19.50;50.20;;;;;;5074428;28;20567;-73
2022/09/29 10:07:39;;;;;;;1.75;1.60;;;19.40;50.10;;;;;;5074789;28;20725;-73
2022/09/29 10:10:14;;;;;;;1.70;1.60;;;19.50;50.10;;;;;;5075175;28;20221;-73
2022/09/29 10:12:41;;;;;;;1.80;1.67;;;19.50;49.90;;;;;;5075959;28;20198;-73
2022/09/29 10:15:18;;;;;;;1.85;1.73;;;19.60;49.90;;;;;;5076269;28;20568;-72
2022/09/29 10:17:46;;;;;;;2.15;1.80;;;19.60;49.90;;;;;;5074607;28;20198;-72
2022/09/29 10:20:13;;;;;;;2.20;1.70;;;19.60;49.80;;;;;;5074043;28;20572;-72
2022/09/29 10:22:40;;;;;;;2.00;1.60;;;19.70;49.70;;;;;;5075242;28;20195;-72
2022/09/29 10:25:12;;;;;;;2.78;1.60;;;19.70;49.60;;;;;;5075102;28;20190;-72
2022/09/29 10:27:40;;;;;;;2.20;1.45;;;19.60;49.80;;;;;;5075278;28;20191;-72
2022/09/29 10:30:18;;;;;;;1.88;1.60;;;19.70;49.70;;;;;;5075148;28;20214;-73
2022/09/29 10:32:46;;;;;;;2.03;1.50;;;19.70;49.60;;;;;;5073886;28;20203;-73
2022/09/29 10:35:16;;;;;;;1.73;1.58;;;19.70;49.60;;;;;;5074904;28;20240;-73
2022/09/29 10:37:47;;;;;;;1.90;1.50;;;19.80;49.60;;;;;;5073743;28;20190;-73
2022/09/29 10:40:17;;;;;;;1.48;1.38;;;19.80;49.40;;;;;;5073751;28;20198;-73
2022/09/29 10:42:45;;;;;;;2.22;1.55;;;19.80;49.40;;;;;;5074704;28;20183;-72
2022/09/29 10:45:13;;;;;;;1.58;1.48;;;19.80;49.50;;;;;;5073730;28;20195;-72
2022/09/29 10:47:42;;;;;;;1.50;1.40;;;19.80;49.40;;;;;;5073391;28;20206;-72
2022/09/29 10:50:14;;;;;;;1.45;1.35;;;19.80;49.50;;;;;;5074838;28;20672;-72
2022/09/29 10:52:42;;;;;;;1.95;1.50;;;19.80;49.60;;;;;;5073651;28;20187;-72
2022/09/29 10:55:18;;;;;;;1.63;1.40;;;19.80;49.70;;;;;;5073577;28;20195;-72
2022/09/29 10:57:45;;;;;;;1.40;1.30;;;19.80;49.70;;;;;;5073452;28;20194;-72
2022/09/29 11:00:25;;;;;;;1.85;1.50;;;19.80;49.70;;;;;;5074337;28;20191;-72
2022/09/29 11:03:01;;;;;;;1.67;1.42;;;19.80;49.80;;;;;;5073216;28;20565;-72
2022/09/29 11:05:27;;;;;;;1.52;1.42;;;19.80;49.70;;;;;;5074738;28;20622;-73
2022/09/29 11:07:54;;;;;;;1.75;1.45;;;19.90;49.90;;;;;;5073360;28;20289;-73
2022/09/29 11:10:27;;;;;;;1.55;1.45;;;19.90;49.60;;;;;;5073042;28;20221;-73
2022/09/29 11:12:57;;;;;;;1.55;1.45;;;19.90;49.60;;;;;;5073108;28;20191;-73
2022/09/29 11:15:25;;;;;;;1.50;1.40;;;19.90;49.50;;;;;;5074095;28;20175;-73
2022/09/29 11:17:54;;;;;;;1.38;1.27;;;20.00;49.60;;;;;;5073000;28;20233;-73
2022/09/29 11:20:21;;;;;;;1.63;1.45;;;20.00;49.50;;;;;;5073042;28;20236;-73
2022/09/29 11:23:19;;;;;;;1.50;1.40;;;20.00;49.40;;;;;;5072816;28;20207;-72
2022/09/29 11:25:52;;;;;;;1.88;1.73;;;20.00;49.20;;;;;;5073146;28;20215;-72
2022/09/29 11:28:33;;;;;;;1.88;1.40;;;20.00;49.20;;;;;;5056944;28;20221;-73
2022/09/29 11:31:08;;;;;;;1.75;1.33;;;20.10;49.20;;;;;;5073823;28;20225;-73
2022/09/29 11:33:42;;;;;;;1.83;1.42;;;20.10;49.10;;;;;;5072814;28;20190;-73
2022/09/29 11:36:12;;;;;;;1.77;1.30;;;20.10;49.00;;;;;;5072573;28;20225;-73
2022/09/29 11:39:04;;;;;;;1.67;1.33;;;20.10;49.00;;;;;;5073061;28;20226;-73
2022/09/29 11:41:48;;;;;;;1.35;1.25;;;20.20;49.20;;;;;;5070510;28;20256;-73
2022/09/29 11:44:26;;;;;;;1.50;1.40;;;20.20;49.20;;;;;;5072516;28;20645;-73
2022/09/29 11:46:59;;;;;;;1.60;1.50;;;20.20;48.90;;;;;;5072832;28;20225;-73
2022/09/29 11:49:37;;;;;;;2.60;1.48;;;20.20;48.90;;;;;;5073793;28;20566;-73
2022/09/29 11:52:12;;;;;;;1.50;1.40;;;20.30;48.90;;;;;;5072694;28;20194;-73
2022/09/29 11:54:56;;;;;;;1.50;1.40;;;20.30;48.80;;;;;;5072469;28;20198;-73
2022/09/29 11:57:30;;;;;;;1.77;1.45;;;20.30;48.80;;;;;;5072258;28;20225;-73
2022/09/29 12:00:04;;;;;;;1.65;1.40;;;20.30;48.80;;;;;;5072342;28;20252;-73
2022/09/29 12:02:44;;;;;;;1.48;1.38;;;20.30;48.80;;;;;;5072435;28;20220;-73
2022/09/29 12:05:16;;;;;;;1.48;1.30;;;20.30;48.80;;;;;;5073351;28;20194;-73
2022/09/29 12:07:46;;;;;;;1.40;1.30;;;20.30;48.80;;;;;;5072387;28;20187;-73
2022/09/29 12:10:22;;;;;;;2.03;1.30;;;20.30;48.80;;;;;;5072266;28;20219;-73
2022/09/29 12:12:54;;;;;;;1.80;1.50;;;20.30;48.80;;;;;;5073637;28;20194;-73
2022/09/29 12:15:26;;;;;;;1.50;1.40;;;20.30;48.70;;;;;;5072165;28;20210;-73
2022/09/29 12:17:55;;;;;;;1.65;1.52;;;20.30;48.70;;;;;;5072384;28;20616;-73
2022/09/29 12:20:25;;;;;;;1.63;1.40;;;20.30;48.60;;;;;;5072749;28;20238;-74
2022/09/29 12:22:53;;;;;;;1.90;1.50;;;20.30;48.60;;;;;;5073471;28;20198;-73
2022/09/29 12:25:23;;;;;;;1.52;1.38;;;20.30;48.70;;;;;;5072174;28;20203;-73
2022/09/29 12:27:52;;;;;;;1.20;1.15;;;20.40;48.80;;;;;;5072703;28;20201;-73
2022/09/29 12:30:21;;;;;;;2.60;1.33;;;20.40;48.60;;;;;;5072635;28;20210;-73
2022/09/29 12:32:51;;;;;;;1.40;1.30;;;20.40;48.90;;;;;;5073514;28;20657;-73
2022/09/29 12:35:20;;;;;;;1.50;1.40;;;20.40;48.80;;;;;;5072093;28;20626;-73
2022/09/29 12:37:52;;;;;;;1.23;1.13;;;20.40;48.60;;;;;;5072197;28;20210;-73
2022/09/29 12:40:20;;;;;;;2.47;1.30;;;20.40;49.00;;;;;;5073223;28;20191;-73
2022/09/29 12:43:02;;;;;;;1.90;1.40;;;20.40;48.80;;;;;;5073469;28;20222;-73
2022/09/29 12:45:31;;;;;;;3.05;1.50;;;20.40;48.90;;;;;;5072783;28;20244;-73
2022/09/29 12:48:03;;;;;;;2.40;1.40;;;20.40;49.30;;;;;;5073556;28;20187;-73
2022/09/29 12:50:32;;;;;;;2.10;1.40;;;20.40;49.00;;;;;;5073857;28;20206;-73
2022/09/29 12:53:03;;;;;;;2.22;1.30;;;20.40;49.10;;;;;;5071967;28;20237;-73
2022/09/29 12:55:35;;;;;;;2.45;1.65;;;20.40;49.10;;;;;;5073214;28;20179;-73
2022/09/29 12:58:04;;;;;;;2.20;1.20;;;20.40;49.30;;;;;;5071859;28;20281;-73
2022/09/29 13:00:32;;;;;;;1.88;1.30;;;20.40;49.30;;;;;;5071742;28;20206;-73
2022/09/29 13:03:15;;;;;;;3.33;1.55;;;20.40;49.70;;;;;;5072177;28;20289;-73